sensor_id;sensor_type;location;lat;lon;timestamp;temperature;humidity
7598;DHT22;3840;59.32098800;18.06423600;2023-12-20T00:01:29;0.70;99.90
7598;DHT22;3840;59.32098800;18.06423600;2023-12-20T00:03:54;0.60;99.90
7598;DHT22;3840;59.32098800;18.06423600;2023-12-20T00:06:20;0.60;99.90
7598;DHT22;3840;59.32098800;18.06423600;2023-12-20T00:08:46;0.60;99.90
7598;DHT22;3840;59.32098800;18.06423600;2023-12-20T00:11:11;0.60;99.90
7598;DHT22;3840;59.32098800;18.06423600;2023-12-20T00:13:37;0.60;99.90
7598;DHT22;3840;59.32098800;18.06423600;2023-12-20T00:16:03;0.60;99.90
7598;DHT22;3840;59.32098800;18.06423600;2023-12-20T00:18:29;0.60;99.90
7598;DHT22;3840;59.32098800;18.06423600;2023-12-20T00:20:54;0.60;99.90
7598;DHT22;3840;59.32098800;18.06423600;2023-12-20T00:23:20;0.50;99.90
7598;DHT22;3840;59.32098800;18.06423600;2023-12-20T00:25:46;0.50;99.90
7598;DHT22;3840;59.32098800;18.06423600;2023-12-20T00:28:13;0.40;99.90
7598;DHT22;3840;59.32098800;18.06423600;2023-12-20T00:30:38;0.40;99.90
7598;DHT22;3840;59.32098800;18.06423600;2023-12-20T00:33:04;-0.30;99.90
7598;DHT22;3840;59.32098800;18.06423600;2023-12-20T00:35:30;0.60;99.90
7598;DHT22;3840;59.32098800;18.06423600;2023-12-20T00:37:55;0.40;99.90
7598;DHT22;3840;59.32098800;18.06423600;2023-12-20T00:40:22;0.40;99.90
7598;DHT22;3840;59.32098800;18.06423600;2023-12-20T00:42:48;0.40;99.90
7598;DHT22;3840;59.32098800;18.06423600;2023-12-20T00:45:13;0.30;99.90
7598;DHT22;3840;59.32098800;18.06423600;2023-12-20T00:47:40;0.50;99.90
7598;DHT22;3840;59.32098800;18.06423600;2023-12-20T00:50:06;0.30;99.90
7598;DHT22;3840;59.32098800;18.06423600;2023-12-20T00:52:32;0.30;99.90
7598;DHT22;3840;59.32098800;18.06423600;2023-12-20T00:55:00;0.30;99.90
7598;DHT22;3840;59.32098800;18.06423600;2023-12-20T00:57:26;0.50;99.90
7598;DHT22;3840;59.32098800;18.06423600;2023-12-20T00:59:52;0.30;99.90
7598;DHT22;3840;59.32098800;18.06423600;2023-12-20T01:02:17;0.20;99.90
7598;DHT22;3840;59.32098800;18.06423600;2023-12-20T01:04:43;0.20;99.90
7598;DHT22;3840;59.32098800;18.06423600;2023-12-20T01:07:09;0.20;99.90
7598;DHT22;3840;59.32098800;18.06423600;2023-12-20T01:09:35;0.20;99.90
7598;DHT22;3840;59.32098800;18.06423600;2023-12-20T01:12:02;0.20;99.90
7598;DHT22;3840;59.32098800;18.06423600;2023-12-20T01:14:27;0.20;99.90
7598;DHT22;3840;59.32098800;18.06423600;2023-12-20T01:16:53;0.20;99.90
7598;DHT22;3840;59.32098800;18.06423600;2023-12-20T01:19:19;0.30;99.90
7598;DHT22;3840;59.32098800;18.06423600;2023-12-20T01:21:45;0.20;99.90
7598;DHT22;3840;59.32098800;18.06423600;2023-12-20T01:24:11;0.20;99.90
7598;DHT22;3840;59.32098800;18.06423600;2023-12-20T01:26:37;0.10;99.90
7598;DHT22;3840;59.32098800;18.06423600;2023-12-20T01:29:02;0.10;99.90
7598;DHT22;3840;59.32098800;18.06423600;2023-12-20T01:31:29;0.10;99.90
7598;DHT22;3840;59.32098800;18.06423600;2023-12-20T01:33:55;0.10;99.90
7598;DHT22;3840;59.32098800;18.06423600;2023-12-20T01:36:21;0.10;99.90
7598;DHT22;3840;59.32098800;18.06423600;2023-12-20T01:38:46;0.10;99.90
7598;DHT22;3840;59.32098800;18.06423600;2023-12-20T01:41:13;0.10;99.90
7598;DHT22;3840;59.32098800;18.06423600;2023-12-20T01:43:39;0.00;99.90
7598;DHT22;3840;59.32098800;18.06423600;2023-12-20T01:46:06;0.00;99.90
7598;DHT22;3840;59.32098800;18.06423600;2023-12-20T01:48:32;-0.10;99.90
7598;DHT22;3840;59.32098800;18.06423600;2023-12-20T01:50:59;-0.10;99.90
7598;DHT22;3840;59.32098800;18.06423600;2023-12-20T01:53:26;-0.10;99.90
7598;DHT22;3840;59.32098800;18.06423600;2023-12-20T01:55:55;-0.10;99.90
7598;DHT22;3840;59.32098800;18.06423600;2023-12-20T01:58:22;-0.10;99.90
7598;DHT22;3840;59.32098800;18.06423600;2023-12-20T02:00:49;-0.10;99.90
7598;DHT22;3840;59.32098800;18.06423600;2023-12-20T02:03:15;-0.10;99.90
7598;DHT22;3840;59.32098800;18.06423600;2023-12-20T02:05:41;-0.20;99.90
7598;DHT22;3840;59.32098800;18.06423600;2023-12-20T02:08:07;-0.20;99.90
7598;DHT22;3840;59.32098800;18.06423600;2023-12-20T02:10:34;-0.20;99.90
7598;DHT22;3840;59.32098800;18.06423600;2023-12-20T02:13:00;-0.20;99.90
7598;DHT22;3840;59.32098800;18.06423600;2023-12-20T02:15:26;-0.20;99.90
7598;DHT22;3840;59.32098800;18.06423600;2023-12-20T02:17:53;-0.10;99.90
7598;DHT22;3840;59.32098800;18.06423600;2023-12-20T02:20:19;-0.10;99.90
7598;DHT22;3840;59.32098800;18.06423600;2023-12-20T02:22:46;-0.10;99.90
7598;DHT22;3840;59.32098800;18.06423600;2023-12-20T02:25:11;-0.10;99.90
7598;DHT22;3840;59.32098800;18.06423600;2023-12-20T02:27:40;-0.10;99.90
7598;DHT22;3840;59.32098800;18.06423600;2023-12-20T02:30:06;-0.10;99.90
7598;DHT22;3840;59.32098800;18.06423600;2023-12-20T02:32:32;-0.10;99.90
7598;DHT22;3840;59.32098800;18.06423600;2023-12-20T02:34:58;-0.10;99.90
7598;DHT22;3840;59.32098800;18.06423600;2023-12-20T02:37:24;-0.10;99.90
7598;DHT22;3840;59.32098800;18.06423600;2023-12-20T02:39:50;0.00;99.90
7598;DHT22;3840;59.32098800;18.06423600;2023-12-20T02:42:15;0.00;99.90
7598;DHT22;3840;59.32098800;18.06423600;2023-12-20T02:44:42;0.00;99.90
7598;DHT22;3840;59.32098800;18.06423600;2023-12-20T02:47:08;0.00;99.90
7598;DHT22;3840;59.32098800;18.06423600;2023-12-20T02:49:33;0.00;99.90
7598;DHT22;3840;59.32098800;18.06423600;2023-12-20T02:51:59;0.00;99.90
7598;DHT22;3840;59.32098800;18.06423600;2023-12-20T02:54:25;0.00;99.90
7598;DHT22;3840;59.32098800;18.06423600;2023-12-20T02:56:50;0.00;99.90
7598;DHT22;3840;59.32098800;18.06423600;2023-12-20T02:59:16;0.00;99.90
7598;DHT22;3840;59.32098800;18.06423600;2023-12-20T03:01:44;0.00;99.90
7598;DHT22;3840;59.32098800;18.06423600;2023-12-20T03:04:10;-0.10;99.90
7598;DHT22;3840;59.32098800;18.06423600;2023-12-20T03:06:36;0.00;99.90
7598;DHT22;3840;59.32098800;18.06423600;2023-12-20T03:09:02;0.00;99.90
7598;DHT22;3840;59.32098800;18.06423600;2023-12-20T03:11:28;0.00;99.90
7598;DHT22;3840;59.32098800;18.06423600;2023-12-20T03:13:58;0.00;99.90
7598;DHT22;3840;59.32098800;18.06423600;2023-12-20T03:16:24;-0.10;99.90
7598;DHT22;3840;59.32098800;18.06423600;2023-12-20T03:18:50;-0.10;99.90
7598;DHT22;3840;59.32098800;18.06423600;2023-12-20T03:21:16;-0.10;99.90
7598;DHT22;3840;59.32098800;18.06423600;2023-12-20T03:23:42;-0.10;99.90
7598;DHT22;3840;59.32098800;18.06423600;2023-12-20T03:26:09;-0.10;99.90
7598;DHT22;3840;59.32098800;18.06423600;2023-12-20T03:28:36;0.00;99.90
7598;DHT22;3840;59.32098800;18.06423600;2023-12-20T03:31:02;0.00;99.90
7598;DHT22;3840;59.32098800;18.06423600;2023-12-20T03:33:28;0.00;99.90
7598;DHT22;3840;59.32098800;18.06423600;2023-12-20T03:35:54;0.10;99.90
7598;DHT22;3840;59.32098800;18.06423600;2023-12-20T03:38:20;0.10;99.90
7598;DHT22;3840;59.32098800;18.06423600;2023-12-20T03:40:46;0.00;99.90
7598;DHT22;3840;59.32098800;18.06423600;2023-12-20T03:43:13;0.20;99.90
7598;DHT22;3840;59.32098800;18.06423600;2023-12-20T03:45:40;0.10;99.90
7598;DHT22;3840;59.32098800;18.06423600;2023-12-20T03:48:06;0.00;99.90
7598;DHT22;3840;59.32098800;18.06423600;2023-12-20T03:50:32;0.00;99.90
7598;DHT22;3840;59.32098800;18.06423600;2023-12-20T03:52:59;0.10;99.90
7598;DHT22;3840;59.32098800;18.06423600;2023-12-20T03:55:24;0.10;99.90
7598;DHT22;3840;59.32098800;18.06423600;2023-12-20T03:57:50;0.10;99.90
7598;DHT22;3840;59.32098800;18.06423600;2023-12-20T04:00:16;0.10;99.90
7598;DHT22;3840;59.32098800;18.06423600;2023-12-20T04:02:42;0.10;99.90
7598;DHT22;3840;59.32098800;18.06423600;2023-12-20T04:05:09;0.20;99.90
7598;DHT22;3840;59.32098800;18.06423600;2023-12-20T04:07:35;0.20;99.90
7598;DHT22;3840;59.32098800;18.06423600;2023-12-20T04:10:02;0.20;99.90
7598;DHT22;3840;59.32098800;18.06423600;2023-12-20T04:12:30;0.20;99.90
7598;DHT22;3840;59.32098800;18.06423600;2023-12-20T04:14:56;0.30;99.90
7598;DHT22;3840;59.32098800;18.06423600;2023-12-20T04:17:23;0.20;99.90
7598;DHT22;3840;59.32098800;18.06423600;2023-12-20T04:19:50;0.30;99.90
7598;DHT22;3840;59.32098800;18.06423600;2023-12-20T04:22:18;0.50;99.90
7598;DHT22;3840;59.32098800;18.06423600;2023-12-20T04:24:44;0.40;99.90
7598;DHT22;3840;59.32098800;18.06423600;2023-12-20T04:27:11;0.40;99.90
7598;DHT22;3840;59.32098800;18.06423600;2023-12-20T04:29:36;0.40;99.90
7598;DHT22;3840;59.32098800;18.06423600;2023-12-20T04:32:02;0.40;99.90
7598;DHT22;3840;59.32098800;18.06423600;2023-12-20T04:34:28;0.40;99.90
7598;DHT22;3840;59.32098800;18.06423600;2023-12-20T04:36:55;0.30;99.90
7598;DHT22;3840;59.32098800;18.06423600;2023-12-20T04:39:21;0.30;99.90
7598;DHT22;3840;59.32098800;18.06423600;2023-12-20T04:41:47;0.40;99.90
7598;DHT22;3840;59.32098800;18.06423600;2023-12-20T04:44:15;0.30;99.90
7598;DHT22;3840;59.32098800;18.06423600;2023-12-20T04:46:41;0.30;99.90
7598;DHT22;3840;59.32098800;18.06423600;2023-12-20T04:49:07;0.30;99.90
7598;DHT22;3840;59.32098800;18.06423600;2023-12-20T04:51:34;0.30;99.90
7598;DHT22;3840;59.32098800;18.06423600;2023-12-20T04:54:00;0.30;99.90
7598;DHT22;3840;59.32098800;18.06423600;2023-12-20T04:56:26;0.20;99.90
7598;DHT22;3840;59.32098800;18.06423600;2023-12-20T04:58:52;0.30;99.90
7598;DHT22;3840;59.32098800;18.06423600;2023-12-20T05:01:19;0.30;99.90
7598;DHT22;3840;59.32098800;18.06423600;2023-12-20T05:03:46;0.30;99.90
7598;DHT22;3840;59.32098800;18.06423600;2023-12-20T05:06:12;0.30;99.90
7598;DHT22;3840;59.32098800;18.06423600;2023-12-20T05:08:38;0.30;99.90
7598;DHT22;3840;59.32098800;18.06423600;2023-12-20T05:11:04;0.20;99.90
7598;DHT22;3840;59.32098800;18.06423600;2023-12-20T05:13:30;0.30;99.90
7598;DHT22;3840;59.32098800;18.06423600;2023-12-20T05:15:55;0.30;99.90
7598;DHT22;3840;59.32098800;18.06423600;2023-12-20T05:18:21;0.30;99.90
7598;DHT22;3840;59.32098800;18.06423600;2023-12-20T05:20:49;0.20;99.90
7598;DHT22;3840;59.32098800;18.06423600;2023-12-20T05:23:14;0.20;99.90
7598;DHT22;3840;59.32098800;18.06423600;2023-12-20T05:25:40;0.10;99.90
7598;DHT22;3840;59.32098800;18.06423600;2023-12-20T05:28:06;0.10;99.90
7598;DHT22;3840;59.32098800;18.06423600;2023-12-20T05:30:32;0.10;99.90
7598;DHT22;3840;59.32098800;18.06423600;2023-12-20T05:32:57;0.10;99.90
7598;DHT22;3840;59.32098800;18.06423600;2023-12-20T05:35:23;0.00;99.90
7598;DHT22;3840;59.32098800;18.06423600;2023-12-20T05:37:49;0.20;99.90
7598;DHT22;3840;59.32098800;18.06423600;2023-12-20T05:40:15;0.10;99.90
7598;DHT22;3840;59.32098800;18.06423600;2023-12-20T05:42:40;0.00;99.90
7598;DHT22;3840;59.32098800;18.06423600;2023-12-20T05:45:06;0.00;99.90
7598;DHT22;3840;59.32098800;18.06423600;2023-12-20T05:47:32;0.00;99.90
7598;DHT22;3840;59.32098800;18.06423600;2023-12-20T05:49:58;0.10;99.90
7598;DHT22;3840;59.32098800;18.06423600;2023-12-20T05:52:25;0.10;99.90
7598;DHT22;3840;59.32098800;18.06423600;2023-12-20T05:54:50;0.10;99.90
7598;DHT22;3840;59.32098800;18.06423600;2023-12-20T05:57:16;0.20;99.90
7598;DHT22;3840;59.32098800;18.06423600;2023-12-20T05:59:42;0.20;99.90
7598;DHT22;3840;59.32098800;18.06423600;2023-12-20T06:02:09;0.20;99.90
7598;DHT22;3840;59.32098800;18.06423600;2023-12-20T06:04:35;0.20;99.90
7598;DHT22;3840;59.32098800;18.06423600;2023-12-20T06:07:02;0.20;99.90
7598;DHT22;3840;59.32098800;18.06423600;2023-12-20T06:09:28;0.30;99.90
7598;DHT22;3840;59.32098800;18.06423600;2023-12-20T06:11:54;0.40;99.90
7598;DHT22;3840;59.32098800;18.06423600;2023-12-20T06:14:20;0.40;99.90
7598;DHT22;3840;59.32098800;18.06423600;2023-12-20T06:16:46;0.40;99.90
7598;DHT22;3840;59.32098800;18.06423600;2023-12-20T06:19:13;0.40;99.90
7598;DHT22;3840;59.32098800;18.06423600;2023-12-20T06:21:39;0.50;99.90
7598;DHT22;3840;59.32098800;18.06423600;2023-12-20T06:24:06;0.50;99.90
7598;DHT22;3840;59.32098800;18.06423600;2023-12-20T06:26:31;0.50;99.90
7598;DHT22;3840;59.32098800;18.06423600;2023-12-20T06:28:57;0.50;99.90
7598;DHT22;3840;59.32098800;18.06423600;2023-12-20T06:31:23;0.50;99.90
7598;DHT22;3840;59.32098800;18.06423600;2023-12-20T06:33:49;0.60;99.90
7598;DHT22;3840;59.32098800;18.06423600;2023-12-20T06:36:26;1.50;99.90
7598;DHT22;3840;59.32098800;18.06423600;2023-12-20T06:38:52;0.50;99.90
7598;DHT22;3840;59.32098800;18.06423600;2023-12-20T06:41:18;0.60;99.90
7598;DHT22;3840;59.32098800;18.06423600;2023-12-20T06:43:43;0.60;99.90
7598;DHT22;3840;59.32098800;18.06423600;2023-12-20T06:46:09;0.60;99.90
7598;DHT22;3840;59.32098800;18.06423600;2023-12-20T06:48:35;0.60;99.90
7598;DHT22;3840;59.32098800;18.06423600;2023-12-20T06:51:01;0.60;99.90
7598;DHT22;3840;59.32098800;18.06423600;2023-12-20T06:53:28;0.70;99.90
7598;DHT22;3840;59.32098800;18.06423600;2023-12-20T06:55:54;0.70;99.90
7598;DHT22;3840;59.32098800;18.06423600;2023-12-20T06:58:21;0.60;99.90
7598;DHT22;3840;59.32098800;18.06423600;2023-12-20T07:00:48;0.70;99.90
7598;DHT22;3840;59.32098800;18.06423600;2023-12-20T07:03:13;0.70;99.90
7598;DHT22;3840;59.32098800;18.06423600;2023-12-20T07:05:39;0.70;99.90
7598;DHT22;3840;59.32098800;18.06423600;2023-12-20T07:08:06;0.70;99.90
7598;DHT22;3840;59.32098800;18.06423600;2023-12-20T07:10:32;0.70;99.90
7598;DHT22;3840;59.32098800;18.06423600;2023-12-20T07:12:58;0.80;99.90
7598;DHT22;3840;59.32098800;18.06423600;2023-12-20T07:15:23;0.80;99.90
7598;DHT22;3840;59.32098800;18.06423600;2023-12-20T07:17:49;0.80;99.90
7598;DHT22;3840;59.32098800;18.06423600;2023-12-20T07:20:15;0.80;99.90
7598;DHT22;3840;59.32098800;18.06423600;2023-12-20T07:22:41;0.70;99.90
7598;DHT22;3840;59.32098800;18.06423600;2023-12-20T07:25:07;0.80;99.90
7598;DHT22;3840;59.32098800;18.06423600;2023-12-20T07:27:33;0.70;99.90
7598;DHT22;3840;59.32098800;18.06423600;2023-12-20T07:29:59;0.80;99.90
7598;DHT22;3840;59.32098800;18.06423600;2023-12-20T07:32:25;0.90;99.90
7598;DHT22;3840;59.32098800;18.06423600;2023-12-20T07:34:52;0.90;99.90
7598;DHT22;3840;59.32098800;18.06423600;2023-12-20T07:37:19;0.90;99.90
7598;DHT22;3840;59.32098800;18.06423600;2023-12-20T07:39:44;0.90;99.90
7598;DHT22;3840;59.32098800;18.06423600;2023-12-20T07:42:11;0.90;99.90
7598;DHT22;3840;59.32098800;18.06423600;2023-12-20T07:44:37;0.90;99.90
7598;DHT22;3840;59.32098800;18.06423600;2023-12-20T07:47:03;1.00;99.90
7598;DHT22;3840;59.32098800;18.06423600;2023-12-20T07:49:30;1.00;99.90
7598;DHT22;3840;59.32098800;18.06423600;2023-12-20T07:51:56;1.00;99.90
7598;DHT22;3840;59.32098800;18.06423600;2023-12-20T07:54:22;1.10;99.90
7598;DHT22;3840;59.32098800;18.06423600;2023-12-20T07:56:49;1.00;99.90
7598;DHT22;3840;59.32098800;18.06423600;2023-12-20T07:59:14;1.00;99.90
7598;DHT22;3840;59.32098800;18.06423600;2023-12-20T08:01:40;1.00;99.90
7598;DHT22;3840;59.32098800;18.06423600;2023-12-20T08:04:06;1.00;99.90
7598;DHT22;3840;59.32098800;18.06423600;2023-12-20T08:06:31;1.20;99.90
7598;DHT22;3840;59.32098800;18.06423600;2023-12-20T08:08:57;1.30;99.90
7598;DHT22;3840;59.32098800;18.06423600;2023-12-20T08:11:23;1.10;99.90
7598;DHT22;3840;59.32098800;18.06423600;2023-12-20T08:13:48;1.10;99.90
7598;DHT22;3840;59.32098800;18.06423600;2023-12-20T08:16:14;1.10;99.90
7598;DHT22;3840;59.32098800;18.06423600;2023-12-20T08:18:43;1.40;99.90
7598;DHT22;3840;59.32098800;18.06423600;2023-12-20T08:21:09;1.00;99.90
7598;DHT22;3840;59.32098800;18.06423600;2023-12-20T08:23:35;1.10;99.90
7598;DHT22;3840;59.32098800;18.06423600;2023-12-20T08:26:07;1.10;99.90
7598;DHT22;3840;59.32098800;18.06423600;2023-12-20T08:28:34;1.10;99.90
7598;DHT22;3840;59.32098800;18.06423600;2023-12-20T08:31:00;1.10;99.90
7598;DHT22;3840;59.32098800;18.06423600;2023-12-20T08:33:26;1.10;99.90
7598;DHT22;3840;59.32098800;18.06423600;2023-12-20T08:35:51;1.10;99.90
7598;DHT22;3840;59.32098800;18.06423600;2023-12-20T08:38:17;1.10;99.90
7598;DHT22;3840;59.32098800;18.06423600;2023-12-20T08:40:43;1.10;99.90
7598;DHT22;3840;59.32098800;18.06423600;2023-12-20T08:43:09;1.10;99.90
7598;DHT22;3840;59.32098800;18.06423600;2023-12-20T08:45:35;1.10;99.90
7598;DHT22;3840;59.32098800;18.06423600;2023-12-20T08:48:01;1.10;99.90
7598;DHT22;3840;59.32098800;18.06423600;2023-12-20T08:50:27;1.10;99.90
7598;DHT22;3840;59.32098800;18.06423600;2023-12-20T08:52:52;1.10;99.90
7598;DHT22;3840;59.32098800;18.06423600;2023-12-20T08:55:19;1.20;99.90
7598;DHT22;3840;59.32098800;18.06423600;2023-12-20T08:57:45;1.30;99.90
7598;DHT22;3840;59.32098800;18.06423600;2023-12-20T09:00:11;1.40;99.90
7598;DHT22;3840;59.32098800;18.06423600;2023-12-20T09:02:38;1.40;99.90
7598;DHT22;3840;59.32098800;18.06423600;2023-12-20T09:05:04;1.50;99.90
7598;DHT22;3840;59.32098800;18.06423600;2023-12-20T09:07:30;0.50;99.90
7598;DHT22;3840;59.32098800;18.06423600;2023-12-20T09:09:57;1.60;99.90
7598;DHT22;3840;59.32098800;18.06423600;2023-12-20T09:12:23;1.70;99.90
7598;DHT22;3840;59.32098800;18.06423600;2023-12-20T09:14:50;1.80;99.90
7598;DHT22;3840;59.32098800;18.06423600;2023-12-20T09:17:17;1.80;99.90
7598;DHT22;3840;59.32098800;18.06423600;2023-12-20T09:19:43;1.90;99.90
7598;DHT22;3840;59.32098800;18.06423600;2023-12-20T09:22:10;1.90;99.90
7598;DHT22;3840;59.32098800;18.06423600;2023-12-20T09:24:36;1.80;99.90
7598;DHT22;3840;59.32098800;18.06423600;2023-12-20T09:27:02;1.80;99.90
7598;DHT22;3840;59.32098800;18.06423600;2023-12-20T09:29:28;1.80;99.90
7598;DHT22;3840;59.32098800;18.06423600;2023-12-20T09:31:54;1.80;99.90
7598;DHT22;3840;59.32098800;18.06423600;2023-12-20T09:34:20;1.80;99.90
7598;DHT22;3840;59.32098800;18.06423600;2023-12-20T09:36:46;2.00;99.90
7598;DHT22;3840;59.32098800;18.06423600;2023-12-20T09:39:13;1.90;99.90
7598;DHT22;3840;59.32098800;18.06423600;2023-12-20T09:41:43;2.00;99.90
7598;DHT22;3840;59.32098800;18.06423600;2023-12-20T09:44:14;2.00;99.90
7598;DHT22;3840;59.32098800;18.06423600;2023-12-20T09:46:43;2.10;99.90
7598;DHT22;3840;59.32098800;18.06423600;2023-12-20T09:49:11;2.10;99.90
7598;DHT22;3840;59.32098800;18.06423600;2023-12-20T09:51:38;2.10;99.90
7598;DHT22;3840;59.32098800;18.06423600;2023-12-20T09:54:05;2.10;99.90
7598;DHT22;3840;59.32098800;18.06423600;2023-12-20T09:56:31;2.10;99.90
7598;DHT22;3840;59.32098800;18.06423600;2023-12-20T09:58:57;2.30;99.90
7598;DHT22;3840;59.32098800;18.06423600;2023-12-20T10:01:24;2.10;99.90
7598;DHT22;3840;59.32098800;18.06423600;2023-12-20T10:03:51;2.10;99.90
7598;DHT22;3840;59.32098800;18.06423600;2023-12-20T10:06:19;2.20;99.90
7598;DHT22;3840;59.32098800;18.06423600;2023-12-20T10:08:45;2.20;99.90
7598;DHT22;3840;59.32098800;18.06423600;2023-12-20T10:11:11;2.10;99.90
7598;DHT22;3840;59.32098800;18.06423600;2023-12-20T10:13:42;2.20;99.90
7598;DHT22;3840;59.32098800;18.06423600;2023-12-20T10:16:08;2.20;99.90
7598;DHT22;3840;59.32098800;18.06423600;2023-12-20T10:18:34;2.20;99.90
7598;DHT22;3840;59.32098800;18.06423600;2023-12-20T10:21:03;2.30;99.90
7598;DHT22;3840;59.32098800;18.06423600;2023-12-20T10:23:30;2.30;99.90
7598;DHT22;3840;59.32098800;18.06423600;2023-12-20T10:25:59;2.30;99.90
7598;DHT22;3840;59.32098800;18.06423600;2023-12-20T10:28:26;2.80;99.90
7598;DHT22;3840;59.32098800;18.06423600;2023-12-20T10:30:54;2.50;99.90
7598;DHT22;3840;59.32098800;18.06423600;2023-12-20T10:33:27;2.50;99.90
7598;DHT22;3840;59.32098800;18.06423600;2023-12-20T10:35:54;2.60;99.90
7598;DHT22;3840;59.32098800;18.06423600;2023-12-20T10:38:21;2.60;99.90
7598;DHT22;3840;59.32098800;18.06423600;2023-12-20T10:40:47;2.60;99.90
7598;DHT22;3840;59.32098800;18.06423600;2023-12-20T10:43:13;2.70;99.90
7598;DHT22;3840;59.32098800;18.06423600;2023-12-20T10:45:41;2.60;99.90
7598;DHT22;3840;59.32098800;18.06423600;2023-12-20T10:48:07;2.60;99.90
7598;DHT22;3840;59.32098800;18.06423600;2023-12-20T10:50:36;2.70;99.90
7598;DHT22;3840;59.32098800;18.06423600;2023-12-20T10:53:04;2.60;99.90
7598;DHT22;3840;59.32098800;18.06423600;2023-12-20T10:55:31;2.60;99.90
7598;DHT22;3840;59.32098800;18.06423600;2023-12-20T10:58:01;2.50;99.90
7598;DHT22;3840;59.32098800;18.06423600;2023-12-20T11:00:29;2.50;99.90
7598;DHT22;3840;59.32098800;18.06423600;2023-12-20T11:03:00;2.60;99.90
7598;DHT22;3840;59.32098800;18.06423600;2023-12-20T11:08:27;2.50;99.90
7598;DHT22;3840;59.32098800;18.06423600;2023-12-20T11:11:03;2.40;99.90
7598;DHT22;3840;59.32098800;18.06423600;2023-12-20T11:13:57;2.40;99.90
7598;DHT22;3840;59.32098800;18.06423600;2023-12-20T11:16:23;2.40;99.90
7598;DHT22;3840;59.32098800;18.06423600;2023-12-20T11:18:51;2.40;99.90
7598;DHT22;3840;59.32098800;18.06423600;2023-12-20T11:21:17;2.30;99.90
7598;DHT22;3840;59.32098800;18.06423600;2023-12-20T11:23:44;2.30;99.90
7598;DHT22;3840;59.32098800;18.06423600;2023-12-20T11:26:10;2.30;99.90
7598;DHT22;3840;59.32098800;18.06423600;2023-12-20T11:28:35;2.20;99.90
7598;DHT22;3840;59.32098800;18.06423600;2023-12-20T11:31:02;2.20;99.90
7598;DHT22;3840;59.32098800;18.06423600;2023-12-20T11:33:37;2.30;99.90
7598;DHT22;3840;59.32098800;18.06423600;2023-12-20T11:36:13;2.50;99.90
7598;DHT22;3840;59.32098800;18.06423600;2023-12-20T11:38:57;2.40;99.90
7598;DHT22;3840;59.32098800;18.06423600;2023-12-20T11:41:23;2.40;99.90
7598;DHT22;3840;59.32098800;18.06423600;2023-12-20T11:43:55;2.40;99.90
7598;DHT22;3840;59.32098800;18.06423600;2023-12-20T11:46:21;2.60;99.90
7598;DHT22;3840;59.32098800;18.06423600;2023-12-20T11:48:49;2.40;99.90
7598;DHT22;3840;59.32098800;18.06423600;2023-12-20T11:51:15;2.40;99.90
7598;DHT22;3840;59.32098800;18.06423600;2023-12-20T11:53:42;2.40;99.90
7598;DHT22;3840;59.32098800;18.06423600;2023-12-20T11:56:08;2.50;99.90
7598;DHT22;3840;59.32098800;18.06423600;2023-12-20T11:58:35;2.40;99.90
7598;DHT22;3840;59.32098800;18.06423600;2023-12-20T12:01:01;2.50;99.90
7598;DHT22;3840;59.32098800;18.06423600;2023-12-20T12:03:30;2.20;99.90
7598;DHT22;3840;59.32098800;18.06423600;2023-12-20T12:05:57;2.40;99.90
7598;DHT22;3840;59.32098800;18.06423600;2023-12-20T12:08:23;2.40;99.90
7598;DHT22;3840;59.32098800;18.06423600;2023-12-20T12:10:50;2.30;99.90
7598;DHT22;3840;59.32098800;18.06423600;2023-12-20T12:13:16;2.40;99.90
7598;DHT22;3840;59.32098800;18.06423600;2023-12-20T12:15:42;2.40;99.90
7598;DHT22;3840;59.32098800;18.06423600;2023-12-20T12:18:08;2.40;99.90
7598;DHT22;3840;59.32098800;18.06423600;2023-12-20T12:20:33;2.40;99.90
7598;DHT22;3840;59.32098800;18.06423600;2023-12-20T12:23:00;2.30;99.90
7598;DHT22;3840;59.32098800;18.06423600;2023-12-20T12:25:26;2.30;99.90
7598;DHT22;3840;59.32098800;18.06423600;2023-12-20T12:27:53;2.30;99.90
7598;DHT22;3840;59.32098800;18.06423600;2023-12-20T12:30:18;2.20;99.90
7598;DHT22;3840;59.32098800;18.06423600;2023-12-20T12:32:44;2.20;99.90
7598;DHT22;3840;59.32098800;18.06423600;2023-12-20T12:35:11;2.20;99.90
7598;DHT22;3840;59.32098800;18.06423600;2023-12-20T12:37:38;2.20;99.90
7598;DHT22;3840;59.32098800;18.06423600;2023-12-20T12:40:15;2.10;99.90
7598;DHT22;3840;59.32098800;18.06423600;2023-12-20T12:42:42;2.10;99.90
7598;DHT22;3840;59.32098800;18.06423600;2023-12-20T12:45:09;2.00;99.90
7598;DHT22;3840;59.32098800;18.06423600;2023-12-20T12:47:35;1.90;99.90
7598;DHT22;3840;59.32098800;18.06423600;2023-12-20T12:50:02;1.90;99.90
7598;DHT22;3840;59.32098800;18.06423600;2023-12-20T12:52:28;1.90;99.90
7598;DHT22;3840;59.32098800;18.06423600;2023-12-20T12:54:53;1.80;99.90
7598;DHT22;3840;59.32098800;18.06423600;2023-12-20T12:57:19;1.80;99.90
7598;DHT22;3840;59.32098800;18.06423600;2023-12-20T12:59:46;1.80;99.90
7598;DHT22;3840;59.32098800;18.06423600;2023-12-20T13:02:13;1.80;99.90
7598;DHT22;3840;59.32098800;18.06423600;2023-12-20T13:04:40;1.90;99.90
7598;DHT22;3840;59.32098800;18.06423600;2023-12-20T13:07:10;1.90;99.90
7598;DHT22;3840;59.32098800;18.06423600;2023-12-20T13:09:39;1.90;99.90
7598;DHT22;3840;59.32098800;18.06423600;2023-12-20T13:12:06;1.90;99.90
7598;DHT22;3840;59.32098800;18.06423600;2023-12-20T13:14:34;2.10;99.90
7598;DHT22;3840;59.32098800;18.06423600;2023-12-20T13:17:00;2.10;99.90
7598;DHT22;3840;59.32098800;18.06423600;2023-12-20T13:19:26;2.00;99.90
7598;DHT22;3840;59.32098800;18.06423600;2023-12-20T13:21:53;2.10;99.90
7598;DHT22;3840;59.32098800;18.06423600;2023-12-20T13:24:19;2.30;99.90
7598;DHT22;3840;59.32098800;18.06423600;2023-12-20T13:26:46;2.20;99.90
7598;DHT22;3840;59.32098800;18.06423600;2023-12-20T13:29:11;2.20;99.90
7598;DHT22;3840;59.32098800;18.06423600;2023-12-20T13:31:37;2.20;99.90
7598;DHT22;3840;59.32098800;18.06423600;2023-12-20T13:34:03;2.20;99.90
7598;DHT22;3840;59.32098800;18.06423600;2023-12-20T13:36:29;2.20;99.90
7598;DHT22;3840;59.32098800;18.06423600;2023-12-20T13:38:55;2.40;99.90
7598;DHT22;3840;59.32098800;18.06423600;2023-12-20T13:41:20;2.30;99.90
7598;DHT22;3840;59.32098800;18.06423600;2023-12-20T13:43:46;2.30;99.90